KFFL/FFL METAR and TAF weather

Enter ICAO airport designator
Station Type Date Time Source
KFFL METAR 2021/10/22 18:55 UTC NOAA

KFFL 221855Z AUTO 34007G13KT 10SM CLR 11/03 A3008 RMK A01


Station Type Date Time Source
KFFL Decoded METAR 2021/10/22 18:55 UTC NOAA

Fair Field, IA, United States (KFFL) 41-03N 091-59W
Oct 22, 2021 - 02:55 PM EDT / 2021.10.22 1855 UTC
Wind: from the NNW (340 degrees) at 8 MPH (7 KT) gusting to 15 MPH (13 KT):0
Visibility: 10 mile(s):0
Sky conditions: clear
Temperature: 51 F (11 C)
Dew Point: 37 F (3 C)
Relative Humidity: 57%
Pressure (altimeter): 30.08 in. Hg (1018 hPa)
ob: KFFL 221855Z AUTO 34007G13KT 10SM CLR 11/03 A3008 RMK A01
cycle: 19

Station Type Date Time Source
KFFL TAF UTC NOAA

Error!

Example: see airport list